createdAt,value
2023-05-16T00:00:06.770Z,554.00
2023-05-16T00:01:06.823Z,554.00
2023-05-16T00:02:06.797Z,555.00
2023-05-16T00:03:06.872Z,553.00
2023-05-16T00:04:06.899Z,549.00
2023-05-16T00:05:07.052Z,548.00
2023-05-16T00:06:06.796Z,546.00
2023-05-16T00:07:06.781Z,545.00
2023-05-16T00:08:06.805Z,549.00
2023-05-16T00:09:06.822Z,548.00
2023-05-16T00:10:06.823Z,546.00
2023-05-16T00:11:06.839Z,548.00
2023-05-16T00:12:06.820Z,550.00
2023-05-16T00:13:06.866Z,551.00
2023-05-16T00:14:06.846Z,553.00
2023-05-16T00:15:07.006Z,554.00
2023-05-16T00:16:07.001Z,555.00
2023-05-16T00:17:07.099Z,552.00
2023-05-16T00:18:06.987Z,551.00
2023-05-16T00:19:06.939Z,548.00
2023-05-16T00:20:06.888Z,548.00
2023-05-16T00:21:06.918Z,549.00
2023-05-16T00:22:06.956Z,548.00
2023-05-16T00:23:06.916Z,551.00
2023-05-16T00:24:06.943Z,551.00
2023-05-16T00:25:06.937Z,550.00
2023-05-16T00:26:06.941Z,547.00
2023-05-16T00:27:07.118Z,547.00
2023-05-16T00:28:06.925Z,548.00
2023-05-16T00:29:06.941Z,547.00
2023-05-16T00:30:06.956Z,541.00
2023-05-16T00:31:06.959Z,540.00
2023-05-16T00:32:07.022Z,538.00
2023-05-16T00:33:07.023Z,538.00
2023-05-16T00:34:06.999Z,539.00
2023-05-16T00:35:06.969Z,541.00
2023-05-16T00:36:06.985Z,541.00
2023-05-16T00:37:07.001Z,541.00
2023-05-16T00:38:07.011Z,541.00
2023-05-16T00:39:07.013Z,541.00
2023-05-16T00:40:07.055Z,543.00
2023-05-16T00:41:07.028Z,541.00
2023-05-16T00:42:07.028Z,542.00
2023-05-16T00:43:07.036Z,546.00
2023-05-16T00:44:07.068Z,543.00
2023-05-16T00:45:07.061Z,543.00
2023-05-16T00:46:07.091Z,542.00
2023-05-16T00:47:07.071Z,543.00
2023-05-16T00:48:07.113Z,541.00
2023-05-16T00:49:07.091Z,539.00
2023-05-16T00:50:07.513Z,539.00
2023-05-16T00:51:07.093Z,540.00
2023-05-16T00:52:07.095Z,536.00
2023-05-16T00:53:07.108Z,531.00
2023-05-16T00:54:07.108Z,531.00
2023-05-16T00:55:07.536Z,534.00
2023-05-16T00:56:07.120Z,533.00
2023-05-16T00:57:07.133Z,531.00
2023-05-16T00:58:07.156Z,529.00
2023-05-16T00:59:07.174Z,530.00
2023-05-16T01:00:07.197Z,531.00
2023-05-16T01:01:07.252Z,529.00
2023-05-16T01:02:07.206Z,528.00
2023-05-16T01:03:07.318Z,524.00
2023-05-16T01:04:07.320Z,526.00
2023-05-16T01:05:07.238Z,527.00
2023-05-16T01:06:07.259Z,527.00
2023-05-16T01:07:07.195Z,525.00
2023-05-16T01:08:07.211Z,527.00
2023-05-16T01:09:07.210Z,530.00
2023-05-16T01:10:07.296Z,532.00
2023-05-16T01:11:08.056Z,533.00
2023-05-16T01:12:07.237Z,535.00
2023-05-16T01:13:07.202Z,532.00
2023-05-16T01:14:07.247Z,528.00
2023-05-16T01:15:07.257Z,525.00
2023-05-16T01:16:07.600Z,525.00
2023-05-16T01:17:07.284Z,525.00
2023-05-16T01:18:07.331Z,526.00
2023-05-16T01:19:07.334Z,532.00
2023-05-16T01:20:07.312Z,530.00
2023-05-16T01:21:07.300Z,525.00
2023-05-16T01:22:07.312Z,524.00
2023-05-16T01:23:07.262Z,525.00
2023-05-16T01:24:07.261Z,526.00
2023-05-16T01:25:07.284Z,526.00
2023-05-16T01:26:07.541Z,528.00
2023-05-16T01:27:07.286Z,528.00
2023-05-16T01:28:07.294Z,528.00
2023-05-16T01:29:07.386Z,528.00
2023-05-16T01:30:07.303Z,528.00
2023-05-16T01:31:07.349Z,527.00
2023-05-16T01:32:07.499Z,524.00
2023-05-16T01:33:07.362Z,524.00
2023-05-16T01:34:07.348Z,521.00
2023-05-16T01:35:07.358Z,523.00
2023-05-16T01:36:07.559Z,527.00
2023-05-16T01:37:07.339Z,523.00
2023-05-16T01:38:07.317Z,524.00
2023-05-16T01:39:07.333Z,524.00
2023-05-16T01:40:07.331Z,524.00
2023-05-16T01:41:07.592Z,527.00
2023-05-16T01:42:07.310Z,526.00
2023-05-16T01:43:07.311Z,525.00
2023-05-16T01:44:07.356Z,522.00
2023-05-16T01:45:07.372Z,521.00
2023-05-16T01:46:07.580Z,519.00
2023-05-16T01:47:07.489Z,516.00
2023-05-16T01:48:07.473Z,517.00
2023-05-16T01:49:07.351Z,518.00
2023-05-16T01:50:07.383Z,517.00
2023-05-16T01:51:07.559Z,518.00
2023-05-16T01:52:07.360Z,516.00
2023-05-16T01:53:07.378Z,515.00
2023-05-16T01:54:07.375Z,516.00
2023-05-16T01:55:07.372Z,514.00
2023-05-16T01:56:07.612Z,513.00
2023-05-16T01:57:07.366Z,511.00
2023-05-16T01:58:07.344Z,514.00
2023-05-16T01:59:07.356Z,516.00
2023-05-16T02:00:07.348Z,515.00
2023-05-16T02:01:07.485Z,518.00
2023-05-16T02:02:07.349Z,520.00
2023-05-16T02:03:07.425Z,521.00
2023-05-16T02:04:07.386Z,519.00
2023-05-16T02:05:07.349Z,516.00
2023-05-16T02:06:07.562Z,517.00
2023-05-16T02:07:07.372Z,516.00
2023-05-16T02:08:07.373Z,515.00
2023-05-16T02:09:07.374Z,517.00
2023-05-16T02:10:07.399Z,516.00
2023-05-16T02:11:07.405Z,515.00
2023-05-16T02:12:07.377Z,514.00
2023-05-16T02:13:07.398Z,515.00
2023-05-16T02:14:07.395Z,513.00
2023-05-16T02:15:07.420Z,514.00
2023-05-16T02:16:07.680Z,515.00
2023-05-16T02:17:07.419Z,517.00
2023-05-16T02:18:07.409Z,515.00
2023-05-16T02:19:07.451Z,516.00
2023-05-16T02:20:07.399Z,519.00
2023-05-16T02:21:07.562Z,521.00
2023-05-16T02:22:07.488Z,518.00
2023-05-16T02:23:07.502Z,517.00
2023-05-16T02:24:07.527Z,513.00
2023-05-16T02:25:07.449Z,514.00
2023-05-16T02:26:07.496Z,514.00
2023-05-16T02:27:07.502Z,512.00
2023-05-16T02:28:07.471Z,510.00
2023-05-16T02:29:07.524Z,511.00
2023-05-16T02:30:07.507Z,512.00
2023-05-16T02:31:07.572Z,512.00
2023-05-16T02:32:07.483Z,513.00
2023-05-16T02:33:07.634Z,514.00
2023-05-16T02:34:07.524Z,516.00
2023-05-16T02:35:07.529Z,519.00
2023-05-16T02:36:07.553Z,521.00
2023-05-16T02:37:07.552Z,520.00
2023-05-16T02:38:07.527Z,519.00
2023-05-16T02:39:07.583Z,519.00
2023-05-16T02:40:07.580Z,516.00
2023-05-16T02:41:08.052Z,513.00
2023-05-16T02:42:07.594Z,513.00
2023-05-16T02:43:07.574Z,516.00
2023-05-16T02:44:07.567Z,515.00
2023-05-16T02:45:07.622Z,513.00
2023-05-16T02:46:07.656Z,517.00
2023-05-16T02:47:07.588Z,516.00
2023-05-16T02:48:07.645Z,518.00
2023-05-16T02:49:07.606Z,517.00
2023-05-16T02:50:07.662Z,515.00
2023-05-16T02:51:08.078Z,515.00
2023-05-16T02:52:07.612Z,514.00
2023-05-16T02:53:07.632Z,515.00
2023-05-16T02:54:07.635Z,515.00
2023-05-16T02:56:08.084Z,514.00
2023-05-16T02:57:07.642Z,514.00
2023-05-16T02:58:07.611Z,512.00
2023-05-16T02:59:07.722Z,511.00
2023-05-16T03:00:07.611Z,507.00
2023-05-16T03:01:08.155Z,510.00
2023-05-16T03:02:07.816Z,510.00
2023-05-16T03:03:07.667Z,511.00
2023-05-16T03:04:07.659Z,512.00
2023-05-16T03:05:07.552Z,511.00
2023-05-16T03:06:07.580Z,509.00
2023-05-16T03:07:07.574Z,509.00
2023-05-16T03:08:07.542Z,508.00
2023-05-16T03:09:07.533Z,507.00
2023-05-16T03:10:07.563Z,504.00
2023-05-16T03:11:07.592Z,506.00
2023-05-16T03:12:07.525Z,505.00
2023-05-16T03:13:07.505Z,506.00
2023-05-16T03:14:07.520Z,505.00
2023-05-16T03:15:07.503Z,502.00
2023-05-16T03:16:07.590Z,506.00
2023-05-16T03:17:07.506Z,507.00
2023-05-16T03:18:07.520Z,509.00
2023-05-16T03:19:07.592Z,507.00
2023-05-16T03:20:07.465Z,506.00
2023-05-16T03:21:07.560Z,507.00
2023-05-16T03:22:07.461Z,508.00
2023-05-16T03:23:07.465Z,507.00
2023-05-16T03:24:07.543Z,503.00
2023-05-16T03:25:07.411Z,503.00
2023-05-16T03:26:07.639Z,504.00
2023-05-16T03:27:07.487Z,506.00
2023-05-16T03:28:07.413Z,505.00
2023-05-16T03:29:07.411Z,505.00
2023-05-16T03:30:07.438Z,506.00
2023-05-16T03:31:07.465Z,506.00
2023-05-16T03:32:07.545Z,508.00
2023-05-16T03:33:07.454Z,503.00
2023-05-16T03:34:07.373Z,502.00
2023-05-16T03:35:07.384Z,504.00
2023-05-16T03:36:07.591Z,505.00
2023-05-16T03:37:07.385Z,509.00
2023-05-16T03:38:07.358Z,511.00
2023-05-16T03:39:07.381Z,511.00
2023-05-16T03:40:07.327Z,510.00
2023-05-16T03:41:07.591Z,513.00
2023-05-16T03:42:07.377Z,509.00
2023-05-16T03:43:07.324Z,511.00
2023-05-16T03:44:07.331Z,508.00
2023-05-16T03:45:07.317Z,508.00
2023-05-16T03:46:07.652Z,512.00
2023-05-16T03:47:07.316Z,512.00
2023-05-16T03:48:07.345Z,516.00
2023-05-16T03:49:07.328Z,513.00
2023-05-16T03:50:07.263Z,515.00
2023-05-16T03:51:07.591Z,514.00
2023-05-16T03:52:07.266Z,514.00
2023-05-16T03:53:07.273Z,514.00
2023-05-16T03:54:07.230Z,513.00
2023-05-16T03:55:07.214Z,513.00
2023-05-16T03:56:07.244Z,512.00
2023-05-16T03:57:07.204Z,517.00
2023-05-16T03:58:07.202Z,517.00
2023-05-16T03:59:07.213Z,519.00
2023-05-16T04:00:07.188Z,522.00
2023-05-16T04:01:07.619Z,519.00
2023-05-16T04:02:07.250Z,519.00
2023-05-16T04:03:07.186Z,520.00
2023-05-16T04:04:07.160Z,518.00
2023-05-16T04:05:07.167Z,517.00
2023-05-16T04:06:07.255Z,515.00
2023-05-16T04:07:07.161Z,515.00
2023-05-16T04:08:07.149Z,512.00
2023-05-16T04:09:07.117Z,510.00
2023-05-16T04:10:07.155Z,511.00
2023-05-16T04:11:07.130Z,509.00
2023-05-16T04:12:07.110Z,510.00
2023-05-16T04:13:07.133Z,509.00
2023-05-16T04:14:07.260Z,508.00
2023-05-16T04:15:07.082Z,509.00
2023-05-16T04:16:07.107Z,510.00
2023-05-16T04:17:07.264Z,507.00
2023-05-16T04:18:07.118Z,507.00
2023-05-16T04:19:07.117Z,508.00
2023-05-16T04:20:07.064Z,510.00
2023-05-16T04:21:07.054Z,510.00
2023-05-16T04:22:07.044Z,508.00
2023-05-16T04:23:07.022Z,505.00
2023-05-16T04:24:07.014Z,503.00
2023-05-16T04:25:07.030Z,506.00
2023-05-16T04:26:07.111Z,505.00
2023-05-16T04:27:07.010Z,505.00
2023-05-16T04:28:06.980Z,506.00
2023-05-16T04:29:06.994Z,507.00
2023-05-16T04:30:07.000Z,508.00
2023-05-16T04:31:07.122Z,510.00
2023-05-16T04:32:06.978Z,512.00
2023-05-16T04:33:07.027Z,513.00
2023-05-16T04:34:06.956Z,516.00
2023-05-16T04:35:06.966Z,518.00
2023-05-16T04:36:07.101Z,516.00
2023-05-16T04:37:06.948Z,518.00
2023-05-16T04:38:06.949Z,519.00
2023-05-16T04:39:06.954Z,521.00
2023-05-16T04:40:06.976Z,521.00
2023-05-16T04:41:06.908Z,521.00
2023-05-16T04:42:06.907Z,522.00
2023-05-16T04:43:06.936Z,518.00
2023-05-16T04:44:06.890Z,518.00
2023-05-16T04:45:06.912Z,516.00
2023-05-16T04:46:06.923Z,513.00
2023-05-16T04:47:06.931Z,515.00
2023-05-16T04:48:06.893Z,515.00
2023-05-16T04:49:06.866Z,514.00
2023-05-16T04:50:06.879Z,514.00
2023-05-16T04:51:06.833Z,514.00
2023-05-16T04:52:06.843Z,515.00
2023-05-16T04:53:06.858Z,516.00
2023-05-16T04:54:06.860Z,516.00
2023-05-16T04:55:06.914Z,514.00
2023-05-16T04:56:07.181Z,517.00
2023-05-16T04:57:06.901Z,511.00
2023-05-16T04:58:06.983Z,510.00
2023-05-16T04:59:06.996Z,511.00
2023-05-16T05:00:07.024Z,509.00
2023-05-16T05:01:07.105Z,509.00
2023-05-16T05:02:07.296Z,509.00
2023-05-16T05:03:07.165Z,508.00
2023-05-16T05:04:07.200Z,533.00
2023-05-16T05:05:07.329Z,542.00
2023-05-16T05:06:07.288Z,534.00
2023-05-16T05:07:07.359Z,532.00
2023-05-16T05:08:07.360Z,528.00
2023-05-16T05:09:07.472Z,527.00
2023-05-16T05:10:07.484Z,526.00
2023-05-16T05:11:07.511Z,526.00
2023-05-16T05:12:07.591Z,528.00
2023-05-16T05:13:07.638Z,529.00
2023-05-16T05:14:07.710Z,590.00
2023-05-16T05:15:07.712Z,560.00
2023-05-16T05:16:08.131Z,557.00
2023-05-16T05:17:07.788Z,557.00
2023-05-16T05:18:07.960Z,557.00
2023-05-16T05:19:07.859Z,550.00
2023-05-16T05:20:07.872Z,554.00
2023-05-16T05:21:08.213Z,555.00
2023-05-16T05:22:07.954Z,553.00
2023-05-16T05:23:07.979Z,553.00
2023-05-16T05:24:07.992Z,553.00
2023-05-16T05:25:08.040Z,553.00
2023-05-16T05:26:08.076Z,555.00
2023-05-16T05:27:08.113Z,557.00
2023-05-16T05:28:08.103Z,559.00
2023-05-16T05:29:08.168Z,556.00
2023-05-16T05:30:08.190Z,552.00
2023-05-16T05:31:08.350Z,549.00
2023-05-16T05:32:08.284Z,539.00
2023-05-16T05:33:08.297Z,533.00
2023-05-16T05:34:08.285Z,536.00
2023-05-16T05:35:08.338Z,538.00
2023-05-16T05:36:08.666Z,536.00
2023-05-16T05:37:08.373Z,533.00
2023-05-16T05:38:08.428Z,534.00
2023-05-16T05:39:08.449Z,533.00
2023-05-16T05:40:08.510Z,533.00
2023-05-16T05:41:08.675Z,530.00
2023-05-16T05:42:08.564Z,529.00
2023-05-16T05:43:08.618Z,532.00
2023-05-16T05:44:08.593Z,530.00
2023-05-16T05:45:08.656Z,529.00
2023-05-16T05:46:09.247Z,531.00
2023-05-16T05:47:08.741Z,604.00
2023-05-16T05:48:08.806Z,563.00
2023-05-16T05:49:08.886Z,555.00
2023-05-16T05:50:08.839Z,548.00
2023-05-16T05:51:08.871Z,547.00
2023-05-16T05:52:08.833Z,546.00
2023-05-16T05:53:08.906Z,541.00
2023-05-16T05:54:08.946Z,539.00
2023-05-16T05:55:08.955Z,539.00
2023-05-16T05:56:09.159Z,536.00
2023-05-16T05:57:10.077Z,532.00
2023-05-16T05:58:09.053Z,530.00
2023-05-16T05:59:09.089Z,529.00
2023-05-16T06:00:09.125Z,529.00
2023-05-16T06:01:09.664Z,528.00
2023-05-16T06:02:09.212Z,527.00
2023-05-16T06:03:09.266Z,527.00
2023-05-16T06:04:09.240Z,525.00
2023-05-16T06:05:09.326Z,524.00
2023-05-16T06:06:09.330Z,521.00
2023-05-16T06:07:09.391Z,523.00
2023-05-16T06:08:09.425Z,523.00
2023-05-16T06:09:09.451Z,525.00
2023-05-16T06:10:09.462Z,527.00
2023-05-16T06:11:09.556Z,528.00
2023-05-16T06:12:09.552Z,532.00
2023-05-16T06:13:09.587Z,530.00
2023-05-16T06:14:09.638Z,525.00
2023-05-16T06:15:09.702Z,525.00
2023-05-16T06:16:10.181Z,524.00
2023-05-16T06:17:09.820Z,524.00
2023-05-16T06:18:09.871Z,523.00
2023-05-16T06:19:09.874Z,522.00
2023-05-16T06:20:09.855Z,518.00
2023-05-16T06:21:10.187Z,519.00
2023-05-16T06:22:09.923Z,520.00
2023-05-16T06:23:09.951Z,521.00
2023-05-16T06:24:09.973Z,520.00
2023-05-16T06:25:10.034Z,520.00
2023-05-16T06:26:10.183Z,520.00
2023-05-16T06:27:10.138Z,520.00
2023-05-16T06:28:10.167Z,521.00
2023-05-16T06:29:10.213Z,519.00
2023-05-16T06:30:10.317Z,518.00
2023-05-16T06:31:10.323Z,516.00
2023-05-16T06:32:13.092Z,516.00
2023-05-16T06:33:10.399Z,522.00
2023-05-16T06:34:10.348Z,521.00
2023-05-16T06:35:10.370Z,521.00
2023-05-16T06:36:10.340Z,524.00
2023-05-16T06:37:10.303Z,523.00
2023-05-16T06:38:10.313Z,526.00
2023-05-16T06:39:10.289Z,529.00
2023-05-16T06:40:10.275Z,529.00
2023-05-16T06:41:10.709Z,529.00
2023-05-16T06:42:10.275Z,526.00
2023-05-16T06:43:10.300Z,525.00
2023-05-16T06:44:10.276Z,522.00
2023-05-16T06:45:10.220Z,522.00
2023-05-16T06:46:10.300Z,522.00
2023-05-16T06:47:10.243Z,522.00
2023-05-16T06:48:10.233Z,520.00
2023-05-16T06:49:10.216Z,520.00
2023-05-16T06:50:10.250Z,517.00
2023-05-16T06:51:10.776Z,518.00
2023-05-16T06:52:10.425Z,519.00
2023-05-16T06:53:10.209Z,520.00
2023-05-16T06:54:10.237Z,633.00
2023-05-16T06:55:10.258Z,588.00
2023-05-16T06:56:11.658Z,625.00
2023-05-16T06:57:10.170Z,657.00
2023-05-16T06:58:10.189Z,879.00
2023-05-16T06:59:10.181Z,849.00
2023-05-16T07:00:10.167Z,907.00
2023-05-16T07:01:10.218Z,910.00
2023-05-16T07:02:10.141Z,931.00
2023-05-16T07:03:10.232Z,940.00
2023-05-16T07:04:10.178Z,986.00
2023-05-16T07:05:10.138Z,1025.00
2023-05-16T07:06:10.186Z,982.00
2023-05-16T07:07:10.125Z,1002.00
2023-05-16T07:08:10.089Z,969.00
2023-05-16T07:09:10.096Z,990.00
2023-05-16T07:10:10.085Z,964.00
2023-05-16T07:11:10.073Z,986.00
2023-05-16T07:12:10.672Z,1015.00
2023-05-16T07:13:10.087Z,1042.00
2023-05-16T07:14:10.073Z,1048.00
2023-05-16T07:15:10.018Z,1070.00
2023-05-16T07:16:10.194Z,1117.00
2023-05-16T07:17:10.066Z,1123.00
2023-05-16T07:18:10.107Z,1133.00
2023-05-16T07:19:10.090Z,1144.00
2023-05-16T07:20:10.016Z,1160.00
2023-05-16T07:21:10.033Z,1164.00
2023-05-16T07:22:10.005Z,1164.00
2023-05-16T07:23:10.059Z,1178.00
2023-05-16T07:24:09.989Z,1191.00
2023-05-16T07:25:09.994Z,1202.00
2023-05-16T07:26:10.155Z,1218.00
2023-05-16T07:27:10.062Z,1223.00
2023-05-16T07:28:10.047Z,1255.00
2023-05-16T07:29:10.061Z,1281.00
2023-05-16T07:30:10.052Z,1345.00
2023-05-16T07:31:10.054Z,1334.00
2023-05-16T07:32:10.096Z,1316.00
2023-05-16T07:33:10.138Z,1314.00
2023-05-16T07:34:10.056Z,1323.00
2023-05-16T07:35:10.064Z,1317.00
2023-05-16T07:36:16.652Z,1323.00
2023-05-16T07:37:11.021Z,1327.00
2023-05-16T07:38:10.054Z,1337.00
2023-05-16T07:39:10.074Z,1347.00
2023-05-16T07:40:10.030Z,1352.00
2023-05-16T07:41:10.025Z,1354.00
2023-05-16T07:42:10.025Z,1355.00
2023-05-16T07:43:09.982Z,1372.00
2023-05-16T07:44:10.032Z,1369.00
2023-05-16T07:45:09.979Z,1373.00
2023-05-16T07:46:10.082Z,1378.00
2023-05-16T07:47:10.113Z,1397.00
2023-05-16T07:48:10.267Z,1397.00
2023-05-16T07:49:10.207Z,1364.00
2023-05-16T07:50:10.194Z,1306.00
2023-05-16T07:51:10.675Z,1213.00
2023-05-16T07:52:10.259Z,1041.00
2023-05-16T07:53:10.267Z,1189.00
2023-05-16T07:54:10.308Z,1178.00
2023-05-16T07:55:10.318Z,1165.00
2023-05-16T07:56:10.371Z,1180.00
2023-05-16T07:57:10.356Z,1184.00
2023-05-16T07:58:10.394Z,1189.00
2023-05-16T07:59:10.479Z,1194.00
2023-05-16T08:00:10.473Z,1218.00
2023-05-16T08:01:10.684Z,1221.00
2023-05-16T08:02:10.499Z,1221.00
2023-05-16T08:03:10.584Z,1222.00
2023-05-16T08:04:10.458Z,1213.00
2023-05-16T08:05:10.512Z,1210.00
2023-05-16T08:06:10.790Z,1200.00
2023-05-16T08:07:10.464Z,1192.00
2023-05-16T08:08:10.457Z,1186.00
2023-05-16T08:09:10.439Z,1177.00
2023-05-16T08:10:13.128Z,1173.00
2023-05-16T08:11:10.662Z,1173.00
2023-05-16T08:12:10.467Z,1176.00
2023-05-16T08:13:10.449Z,1175.00
2023-05-16T08:14:10.452Z,1159.00
2023-05-16T08:15:10.437Z,1141.00
2023-05-16T08:16:10.454Z,1139.00
2023-05-16T08:17:10.429Z,1133.00
2023-05-16T08:18:10.479Z,1137.00
2023-05-16T08:19:10.443Z,1134.00
2023-05-16T08:20:10.402Z,1133.00
2023-05-16T08:21:10.361Z,1136.00
2023-05-16T08:22:10.383Z,1134.00
2023-05-16T08:23:10.414Z,1130.00
2023-05-16T08:24:11.236Z,1134.00
2023-05-16T08:25:10.350Z,1136.00
2023-05-16T08:26:10.727Z,1133.00
2023-05-16T08:27:10.340Z,1130.00
2023-05-16T08:28:10.335Z,1132.00
2023-05-16T08:29:10.316Z,1127.00
2023-05-16T08:30:10.328Z,1113.00
2023-05-16T08:31:10.403Z,1098.00
2023-05-16T08:32:10.307Z,1099.00
2023-05-16T08:33:10.435Z,1092.00
2023-05-16T08:34:10.283Z,1077.00
2023-05-16T08:35:10.330Z,1079.00
2023-05-16T08:36:10.297Z,1077.00
2023-05-16T08:37:10.296Z,1076.00
2023-05-16T08:38:10.265Z,1074.00
2023-05-16T08:39:10.236Z,1068.00
2023-05-16T08:40:10.259Z,1071.00
2023-05-16T08:41:10.762Z,1071.00
2023-05-16T08:42:10.242Z,1072.00
2023-05-16T08:43:10.270Z,1106.00
2023-05-16T08:44:10.242Z,1083.00
2023-05-16T08:45:10.235Z,1062.00
2023-05-16T08:46:10.240Z,1059.00
2023-05-16T08:47:10.381Z,1076.00
2023-05-16T08:48:10.655Z,1104.00
2023-05-16T08:49:10.225Z,1127.00
2023-05-16T08:50:10.174Z,1128.00
2023-05-16T08:51:10.212Z,1160.00
2023-05-16T08:52:10.180Z,1212.00
2023-05-16T08:53:10.227Z,1184.00
2023-05-16T08:54:10.217Z,1193.00
2023-05-16T08:55:25.105Z,1269.00
2023-05-16T08:56:11.170Z,1242.00
2023-05-16T08:57:10.146Z,1277.00
2023-05-16T08:58:10.132Z,942.00
2023-05-16T08:59:10.155Z,891.00
2023-05-16T09:00:10.152Z,860.00
2023-05-16T09:01:10.289Z,845.00
2023-05-16T09:02:10.129Z,1094.00
2023-05-16T09:03:10.133Z,1033.00
2023-05-16T09:04:10.191Z,1205.00
2023-05-16T09:05:10.097Z,1208.00
2023-05-16T09:06:10.096Z,1194.00
2023-05-16T09:07:10.073Z,1184.00
2023-05-16T09:08:10.077Z,1200.00
2023-05-16T09:09:10.058Z,1214.00
2023-05-16T09:10:10.046Z,1217.00
2023-05-16T09:11:10.228Z,1223.00
2023-05-16T09:12:10.073Z,1243.00
2023-05-16T09:13:10.037Z,1245.00
2023-05-16T09:14:10.031Z,1250.00
2023-05-16T09:15:10.117Z,1245.00
2023-05-16T09:16:10.236Z,1247.00
2023-05-16T09:17:12.279Z,1307.00
2023-05-16T09:18:10.346Z,1297.00
2023-05-16T09:19:10.605Z,1286.00
2023-05-16T09:20:10.393Z,1278.00
2023-05-16T09:21:10.436Z,1277.00
2023-05-16T09:22:10.490Z,1269.00
2023-05-16T09:23:10.510Z,1289.00
2023-05-16T09:24:10.598Z,1297.00
2023-05-16T09:25:21.750Z,1316.00
2023-05-16T09:26:11.703Z,1304.00
2023-05-16T09:27:10.674Z,1279.00
2023-05-16T09:28:10.624Z,1285.00
2023-05-16T09:29:10.644Z,1301.00
2023-05-16T09:30:10.657Z,1287.00
2023-05-16T09:31:10.750Z,1270.00
2023-05-16T09:32:10.618Z,1267.00
2023-05-16T09:33:10.647Z,1263.00
2023-05-16T09:34:10.620Z,1270.00
2023-05-16T09:35:10.602Z,1274.00
2023-05-16T09:36:10.743Z,1289.00
2023-05-16T09:37:10.698Z,1295.00
2023-05-16T09:38:10.754Z,1305.00
2023-05-16T09:39:10.764Z,1311.00
2023-05-16T09:40:10.844Z,1310.00
2023-05-16T09:41:11.227Z,1305.00
2023-05-16T09:42:10.914Z,1302.00
2023-05-16T09:43:10.963Z,1302.00
2023-05-16T09:44:10.968Z,1306.00
2023-05-16T09:45:11.015Z,1357.00
2023-05-16T09:46:11.290Z,1335.00
2023-05-16T09:47:11.125Z,1261.00
2023-05-16T09:48:11.292Z,1229.00
2023-05-16T09:49:11.357Z,1186.00
2023-05-16T09:50:11.391Z,1157.00
2023-05-16T09:51:11.733Z,1154.00
2023-05-16T09:52:11.483Z,1140.00
2023-05-16T09:53:11.476Z,1130.00
2023-05-16T09:54:11.506Z,1124.00
2023-05-16T09:55:11.507Z,1113.00
2023-05-16T09:56:11.528Z,1062.00
2023-05-16T09:57:11.519Z,1050.00
2023-05-16T09:58:11.527Z,1021.00
2023-05-16T09:59:11.514Z,1007.00
2023-05-16T10:00:11.520Z,979.00
2023-05-16T10:01:11.724Z,954.00
2023-05-16T10:02:11.581Z,939.00
2023-05-16T10:03:11.879Z,913.00
2023-05-16T10:04:11.680Z,901.00
2023-05-16T10:05:11.615Z,885.00
2023-05-16T10:06:11.688Z,875.00
2023-05-16T10:07:11.759Z,852.00
2023-05-16T10:08:11.713Z,819.00
2023-05-16T10:09:11.744Z,809.00
2023-05-16T10:10:11.769Z,805.00
2023-05-16T10:11:11.873Z,795.00
2023-05-16T10:12:11.872Z,766.00
2023-05-16T10:13:11.893Z,758.00
2023-05-16T10:14:12.837Z,749.00
2023-05-16T10:15:11.836Z,739.00
2023-05-16T10:16:12.436Z,729.00
2023-05-16T10:17:11.833Z,719.00
2023-05-16T10:18:11.949Z,709.00
2023-05-16T10:19:12.042Z,699.00
2023-05-16T10:20:11.839Z,693.00
2023-05-16T10:21:12.230Z,690.00
2023-05-16T10:22:11.805Z,684.00
2023-05-16T10:23:11.818Z,676.00
2023-05-16T10:24:11.843Z,668.00
2023-05-16T10:25:11.817Z,663.00
2023-05-16T10:26:12.289Z,653.00
2023-05-16T10:27:11.836Z,641.00
2023-05-16T10:28:11.889Z,638.00
2023-05-16T10:29:11.945Z,635.00
2023-05-16T10:30:11.972Z,629.00
2023-05-16T10:31:12.013Z,622.00
2023-05-16T10:32:12.224Z,613.00
2023-05-16T10:33:12.156Z,607.00
2023-05-16T10:34:12.185Z,602.00
2023-05-16T10:35:12.217Z,597.00
2023-05-16T10:36:12.261Z,594.00
2023-05-16T10:37:12.262Z,589.00
2023-05-16T10:38:12.321Z,585.00
2023-05-16T10:39:12.345Z,583.00
2023-05-16T10:40:12.376Z,577.00
2023-05-16T10:41:12.748Z,574.00
2023-05-16T10:42:12.460Z,576.00
2023-05-16T10:43:12.493Z,572.00
2023-05-16T10:44:12.532Z,570.00
2023-05-16T10:45:12.579Z,567.00
2023-05-16T10:46:12.816Z,567.00
2023-05-16T10:47:12.667Z,563.00
2023-05-16T10:48:12.738Z,564.00
2023-05-16T10:49:12.744Z,565.00
2023-05-16T10:50:12.746Z,563.00
2023-05-16T10:51:12.807Z,564.00
2023-05-16T10:52:12.862Z,562.00
2023-05-16T10:53:12.874Z,560.00
2023-05-16T10:54:12.951Z,559.00
2023-05-16T10:55:12.946Z,557.00
2023-05-16T10:56:13.268Z,554.00
2023-05-16T10:57:13.053Z,551.00
2023-05-16T10:58:13.117Z,552.00
2023-05-16T10:59:13.132Z,552.00
2023-05-16T11:00:13.185Z,549.00
2023-05-16T11:01:13.305Z,547.00
2023-05-16T11:02:13.347Z,546.00
2023-05-16T11:03:13.429Z,543.00
2023-05-16T11:04:13.373Z,544.00
2023-05-16T11:05:13.413Z,544.00
2023-05-16T11:06:13.436Z,542.00
2023-05-16T11:07:13.711Z,540.00
2023-05-16T11:08:13.621Z,538.00
2023-05-16T11:09:13.648Z,538.00
2023-05-16T11:10:13.704Z,537.00
2023-05-16T11:11:13.726Z,538.00
2023-05-16T11:12:13.755Z,539.00
2023-05-16T11:13:13.846Z,535.00
2023-05-16T11:14:13.887Z,533.00
2023-05-16T11:15:13.916Z,530.00
2023-05-16T11:16:14.018Z,527.00
2023-05-16T11:17:14.261Z,528.00
2023-05-16T11:18:14.167Z,528.00
2023-05-16T11:19:14.250Z,524.00
2023-05-16T11:20:14.237Z,523.00
2023-05-16T11:21:14.239Z,525.00
2023-05-16T11:22:14.309Z,524.00
2023-05-16T11:23:14.388Z,525.00
2023-05-16T11:24:14.421Z,527.00
2023-05-16T11:25:14.468Z,527.00
2023-05-16T11:26:14.531Z,526.00
2023-05-16T11:27:14.570Z,527.00
2023-05-16T11:28:14.682Z,526.00
2023-05-16T11:29:14.691Z,525.00
2023-05-16T11:30:14.850Z,525.00
2023-05-16T11:31:15.342Z,524.00
2023-05-16T11:32:14.892Z,522.00
2023-05-16T11:33:14.953Z,520.00
2023-05-16T11:34:14.958Z,520.00
2023-05-16T11:35:15.372Z,522.00
2023-05-16T11:36:16.622Z,524.00
2023-05-16T11:37:15.144Z,522.00
2023-05-16T11:38:15.164Z,523.00
2023-05-16T11:39:15.222Z,520.00
2023-05-16T11:40:15.288Z,517.00
2023-05-16T11:41:15.321Z,517.00
2023-05-16T11:42:15.373Z,517.00
2023-05-16T11:43:15.412Z,521.00
2023-05-16T11:44:15.483Z,521.00
2023-05-16T11:45:15.534Z,522.00
2023-05-16T11:46:15.732Z,523.00
2023-05-16T11:47:15.686Z,521.00
2023-05-16T11:48:21.954Z,513.00
2023-05-16T11:49:16.684Z,512.00
2023-05-16T11:50:15.741Z,513.00
2023-05-16T11:51:15.886Z,515.00
2023-05-16T11:52:15.662Z,516.00
2023-05-16T11:53:15.680Z,516.00
2023-05-16T11:54:15.786Z,515.00
2023-05-16T11:55:28.139Z,512.00
2023-05-16T11:56:16.790Z,511.00
2023-05-16T11:57:15.724Z,509.00
2023-05-16T11:58:15.694Z,511.00
2023-05-16T11:59:15.721Z,511.00
2023-05-16T12:00:15.685Z,513.00
2023-05-16T12:01:15.699Z,512.00
2023-05-16T12:02:15.676Z,516.00
2023-05-16T12:03:16.342Z,517.00
2023-05-16T12:04:15.842Z,515.00
2023-05-16T12:05:15.795Z,514.00
2023-05-16T12:06:16.267Z,518.00
2023-05-16T12:07:15.860Z,522.00
2023-05-16T12:08:15.894Z,520.00
2023-05-16T12:09:18.378Z,520.00
2023-05-16T12:10:15.936Z,519.00
2023-05-16T12:11:16.324Z,518.00
2023-05-16T12:12:15.926Z,522.00
2023-05-16T12:13:15.921Z,523.00
2023-05-16T12:14:15.912Z,520.00
2023-05-16T12:15:15.958Z,520.00
2023-05-16T12:16:16.403Z,516.00
2023-05-16T12:17:15.896Z,514.00
2023-05-16T12:18:15.953Z,510.00
2023-05-16T12:19:15.954Z,509.00
2023-05-16T12:20:15.903Z,508.00
2023-05-16T12:21:16.270Z,508.00
2023-05-16T12:22:15.856Z,509.00
2023-05-16T12:23:15.874Z,508.00
2023-05-16T12:24:15.859Z,506.00